Du har inga inställningar för hoppväder.nu

Hoppväder.nu

Senast uppdaterat 12:13

UTC-tid

2021-12-07 kl. 11:13


Sol och måne

Solen går upp 8:40 och går ner 14:51 (beräknade cirkatider)
Nästa fullmåne blir om 12 dagar (2021-12-19)

METAR

ESOW (Västerås)
(23 minuter sedan)
ESOW 071050Z 00000KT CAVOK M14/M17 Q1019=



ESSA (Arlanda)
(23 minuter sedan)
ESSA 071050Z 29003KT CAVOK M14/M16 Q1017 NOSIG=



ESKN (Skavsta)
(23 minuter sedan)
ESKN 071050Z VRB02KT CAVOK M14/M16 Q1018=



ESOE (Örebro)
(23 minuter sedan)
ESOE 071050Z 35002KT 9000 -SN SCT003 M13/M15 Q1018=



ESSD (Borlänge)
(23 minuter sedan)
ESSD 071050Z 00000KT CAVOK M17/M19 Q1017=



TAF

ESOW (Västerås)
(163 minuter sedan)
ESOW 070830Z 0709/0716 VRB02KT CAVOK=



ESSA (Arlanda)
(343 minuter sedan)
ESSA 070530Z 0706/0806 VRB02KT CAVOK=



ESKN (Skavsta)
(191 minuter sedan)
ESKN AMD 070802Z 0708/0806 27003KT 9999 FEW003 TEMPO 0708/0712 4000 -SN BKN003 TEMPO 0800/0804 3000 -SN VV012 BECMG 0804/0806 13010KT=



ESOE (Örebro)
(110 minuter sedan)
ESOE AMD 070923Z 0709/0718 02002KT 2000 -SN OVC003 TEMPO 0709/0710 8000 SCT003 BECMG 0710/0712 9999 NSW SCT040=



ESSD (Borlänge)
(163 minuter sedan)
ESSD 070830Z 0709/0717 25003KT CAVOK=





Kodnycklar till TAF och METAR






LHP

(Västerås är område se32e i Delområde 4)







Spotting

Hur fungerar spotthjälpen och Vindkartan?

Markvind är ca 0 m/s.



Vindkartan

Senast uppdaterad 12:13




All data kommer från LFV.se